sensor_id;sensor_type;location;lat;lon;timestamp;temperature;humidity
28614;DHT22;15806;53.548;9.964;2022-09-24T00:01:37;14.50;99.90
28614;DHT22;15806;53.548;9.964;2022-09-24T00:03:18;14.40;99.90
28614;DHT22;15806;53.548;9.964;2022-09-24T00:04:59;14.40;99.90
28614;DHT22;15806;53.548;9.964;2022-09-24T00:06:42;14.40;99.90
28614;DHT22;15806;53.548;9.964;2022-09-24T00:08:23;14.40;99.90
28614;DHT22;15806;53.548;9.964;2022-09-24T00:10:04;14.40;99.90
28614;DHT22;15806;53.548;9.964;2022-09-24T00:11:44;14.40;99.90
28614;DHT22;15806;53.548;9.964;2022-09-24T00:13:25;14.40;99.90
28614;DHT22;15806;53.548;9.964;2022-09-24T00:15:06;14.40;99.90
28614;DHT22;15806;53.548;9.964;2022-09-24T00:16:46;14.40;99.90
28614;DHT22;15806;53.548;9.964;2022-09-24T00:18:27;14.40;99.90
28614;DHT22;15806;53.548;9.964;2022-09-24T00:20:08;14.30;99.90
28614;DHT22;15806;53.548;9.964;2022-09-24T00:21:48;14.30;99.90
28614;DHT22;15806;53.548;9.964;2022-09-24T00:23:29;14.30;99.90
28614;DHT22;15806;53.548;9.964;2022-09-24T00:25:09;14.30;99.90
28614;DHT22;15806;53.548;9.964;2022-09-24T00:26:50;14.30;99.90
28614;DHT22;15806;53.548;9.964;2022-09-24T00:28:31;14.30;99.90
28614;DHT22;15806;53.548;9.964;2022-09-24T00:30:12;14.30;99.90
28614;DHT22;15806;53.548;9.964;2022-09-24T00:31:53;14.40;99.90
28614;DHT22;15806;53.548;9.964;2022-09-24T00:33:34;14.40;99.90
28614;DHT22;15806;53.548;9.964;2022-09-24T00:35:14;14.40;99.90
28614;DHT22;15806;53.548;9.964;2022-09-24T00:36:55;14.40;99.90
28614;DHT22;15806;53.548;9.964;2022-09-24T00:38:36;14.30;99.90
28614;DHT22;15806;53.548;9.964;2022-09-24T00:40:16;14.30;99.90
28614;DHT22;15806;53.548;9.964;2022-09-24T00:41:57;14.30;99.90
28614;DHT22;15806;53.548;9.964;2022-09-24T00:43:37;14.30;99.90
28614;DHT22;15806;53.548;9.964;2022-09-24T00:45:18;14.30;99.90
28614;DHT22;15806;53.548;9.964;2022-09-24T00:46:58;14.20;99.90
28614;DHT22;15806;53.548;9.964;2022-09-24T00:48:41;14.20;99.90
28614;DHT22;15806;53.548;9.964;2022-09-24T00:50:31;14.20;99.90
28614;DHT22;15806;53.548;9.964;2022-09-24T00:52:13;14.10;99.90
28614;DHT22;15806;53.548;9.964;2022-09-24T00:53:59;14.10;99.90
28614;DHT22;15806;53.548;9.964;2022-09-24T00:55:46;14.10;99.90
28614;DHT22;15806;53.548;9.964;2022-09-24T00:57:28;14.10;99.90
28614;DHT22;15806;53.548;9.964;2022-09-24T00:59:10;14.10;99.90
28614;DHT22;15806;53.548;9.964;2022-09-24T01:00:59;14.10;99.90
28614;DHT22;15806;53.548;9.964;2022-09-24T01:02:45;14.10;99.90
28614;DHT22;15806;53.548;9.964;2022-09-24T01:04:27;14.10;99.90
28614;DHT22;15806;53.548;9.964;2022-09-24T01:06:08;14.10;99.90
28614;DHT22;15806;53.548;9.964;2022-09-24T01:07:48;14.10;99.90
28614;DHT22;15806;53.548;9.964;2022-09-24T01:09:29;14.10;99.90
28614;DHT22;15806;53.548;9.964;2022-09-24T01:11:50;14.10;99.90
28614;DHT22;15806;53.548;9.964;2022-09-24T01:16:01;14.10;99.90
28614;DHT22;15806;53.548;9.964;2022-09-24T01:17:54;14.10;99.90
28614;DHT22;15806;53.548;9.964;2022-09-24T01:21:43;14.10;99.90
28614;DHT22;15806;53.548;9.964;2022-09-24T01:26:01;14.10;99.90
28614;DHT22;15806;53.548;9.964;2022-09-24T01:31:33;14.10;99.90
28614;DHT22;15806;53.548;9.964;2022-09-24T01:33:18;14.10;99.90
28614;DHT22;15806;53.548;9.964;2022-09-24T01:36:49;14.10;99.90
28614;DHT22;15806;53.548;9.964;2022-09-24T01:38:34;14.10;99.90
28614;DHT22;15806;53.548;9.964;2022-09-24T01:40:16;14.10;99.90
28614;DHT22;15806;53.548;9.964;2022-09-24T01:41:58;14.10;99.90
28614;DHT22;15806;53.548;9.964;2022-09-24T01:43:39;14.10;99.90
28614;DHT22;15806;53.548;9.964;2022-09-24T01:45:20;14.10;99.90
28614;DHT22;15806;53.548;9.964;2022-09-24T01:47:02;14.10;99.90
28614;DHT22;15806;53.548;9.964;2022-09-24T01:48:43;14.10;99.90
28614;DHT22;15806;53.548;9.964;2022-09-24T01:50:24;14.10;99.90
28614;DHT22;15806;53.548;9.964;2022-09-24T01:52:08;14.10;99.90
28614;DHT22;15806;53.548;9.964;2022-09-24T01:55:40;14.10;99.90
28614;DHT22;15806;53.548;9.964;2022-09-24T01:57:32;14.10;99.90
28614;DHT22;15806;53.548;9.964;2022-09-24T01:59:21;14.10;99.90
28614;DHT22;15806;53.548;9.964;2022-09-24T02:01:13;14.10;99.90
28614;DHT22;15806;53.548;9.964;2022-09-24T02:04:55;14.10;99.90
28614;DHT22;15806;53.548;9.964;2022-09-24T02:07:01;14.10;99.90
28614;DHT22;15806;53.548;9.964;2022-09-24T02:08:47;14.10;99.90
28614;DHT22;15806;53.548;9.964;2022-09-24T02:10:31;14.10;99.90
28614;DHT22;15806;53.548;9.964;2022-09-24T02:12:19;14.10;99.90
28614;DHT22;15806;53.548;9.964;2022-09-24T02:14:07;14.00;99.90
28614;DHT22;15806;53.548;9.964;2022-09-24T02:15:52;14.00;99.90
28614;DHT22;15806;53.548;9.964;2022-09-24T02:17:36;14.00;99.90
28614;DHT22;15806;53.548;9.964;2022-09-24T02:19:20;14.00;99.90
28614;DHT22;15806;53.548;9.964;2022-09-24T02:21:06;14.00;99.90
28614;DHT22;15806;53.548;9.964;2022-09-24T02:22:48;14.00;99.90
28614;DHT22;15806;53.548;9.964;2022-09-24T02:24:49;14.00;99.90
28614;DHT22;15806;53.548;9.964;2022-09-24T02:26:30;14.00;99.90
28614;DHT22;15806;53.548;9.964;2022-09-24T02:28:11;14.00;99.90
28614;DHT22;15806;53.548;9.964;2022-09-24T02:29:51;14.00;99.90
28614;DHT22;15806;53.548;9.964;2022-09-24T02:31:41;13.90;99.90
28614;DHT22;15806;53.548;9.964;2022-09-24T02:33:23;13.90;99.90
28614;DHT22;15806;53.548;9.964;2022-09-24T02:35:08;13.90;99.90
28614;DHT22;15806;53.548;9.964;2022-09-24T02:36:54;13.90;99.90
28614;DHT22;15806;53.548;9.964;2022-09-24T02:38:37;13.90;99.90
28614;DHT22;15806;53.548;9.964;2022-09-24T02:40:17;13.90;99.90
28614;DHT22;15806;53.548;9.964;2022-09-24T02:41:58;13.90;99.90
28614;DHT22;15806;53.548;9.964;2022-09-24T02:43:40;13.90;99.90
28614;DHT22;15806;53.548;9.964;2022-09-24T02:45:20;13.90;99.90
28614;DHT22;15806;53.548;9.964;2022-09-24T02:47:01;13.90;99.90
28614;DHT22;15806;53.548;9.964;2022-09-24T02:48:41;13.90;99.90
28614;DHT22;15806;53.548;9.964;2022-09-24T02:50:22;13.90;99.90
28614;DHT22;15806;53.548;9.964;2022-09-24T02:52:02;14.00;99.90
28614;DHT22;15806;53.548;9.964;2022-09-24T02:53:43;14.00;99.90
28614;DHT22;15806;53.548;9.964;2022-09-24T02:55:23;14.00;99.90
28614;DHT22;15806;53.548;9.964;2022-09-24T02:57:04;13.90;99.90
28614;DHT22;15806;53.548;9.964;2022-09-24T02:58:44;13.90;99.90
28614;DHT22;15806;53.548;9.964;2022-09-24T03:00:25;13.90;99.90
28614;DHT22;15806;53.548;9.964;2022-09-24T03:02:05;13.90;99.90
28614;DHT22;15806;53.548;9.964;2022-09-24T03:03:46;14.00;99.90
28614;DHT22;15806;53.548;9.964;2022-09-24T03:05:27;14.00;99.90
28614;DHT22;15806;53.548;9.964;2022-09-24T03:07:07;14.00;99.90
28614;DHT22;15806;53.548;9.964;2022-09-24T03:08:48;14.00;99.90
28614;DHT22;15806;53.548;9.964;2022-09-24T03:10:28;14.00;99.90
28614;DHT22;15806;53.548;9.964;2022-09-24T03:12:09;14.00;99.90
28614;DHT22;15806;53.548;9.964;2022-09-24T03:13:50;14.00;99.90
28614;DHT22;15806;53.548;9.964;2022-09-24T03:15:31;14.00;99.90
28614;DHT22;15806;53.548;9.964;2022-09-24T03:17:11;14.00;99.90
28614;DHT22;15806;53.548;9.964;2022-09-24T03:18:52;14.00;99.90
28614;DHT22;15806;53.548;9.964;2022-09-24T03:20:32;14.00;99.90
28614;DHT22;15806;53.548;9.964;2022-09-24T03:22:13;13.90;99.90
28614;DHT22;15806;53.548;9.964;2022-09-24T03:23:53;13.90;99.90
28614;DHT22;15806;53.548;9.964;2022-09-24T03:25:34;13.90;99.90
28614;DHT22;15806;53.548;9.964;2022-09-24T03:27:14;13.90;99.90
28614;DHT22;15806;53.548;9.964;2022-09-24T03:28:55;14.00;99.90
28614;DHT22;15806;53.548;9.964;2022-09-24T03:30:35;14.00;99.90
28614;DHT22;15806;53.548;9.964;2022-09-24T03:32:16;14.00;99.90
28614;DHT22;15806;53.548;9.964;2022-09-24T03:33:56;14.00;99.90
28614;DHT22;15806;53.548;9.964;2022-09-24T03:35:37;13.90;99.90
28614;DHT22;15806;53.548;9.964;2022-09-24T03:37:17;13.90;99.90
28614;DHT22;15806;53.548;9.964;2022-09-24T03:38:58;14.10;99.90
28614;DHT22;15806;53.548;9.964;2022-09-24T03:40:38;14.10;99.90
28614;DHT22;15806;53.548;9.964;2022-09-24T03:42:19;14.10;99.90
28614;DHT22;15806;53.548;9.964;2022-09-24T03:43:59;14.10;99.90
28614;DHT22;15806;53.548;9.964;2022-09-24T03:45:40;14.10;99.90
28614;DHT22;15806;53.548;9.964;2022-09-24T03:47:21;14.20;99.90
28614;DHT22;15806;53.548;9.964;2022-09-24T03:49:01;14.20;99.90
28614;DHT22;15806;53.548;9.964;2022-09-24T03:50:42;14.20;99.90
28614;DHT22;15806;53.548;9.964;2022-09-24T03:52:23;14.20;99.90
28614;DHT22;15806;53.548;9.964;2022-09-24T03:54:03;14.30;99.90
28614;DHT22;15806;53.548;9.964;2022-09-24T03:55:45;14.20;99.90
28614;DHT22;15806;53.548;9.964;2022-09-24T03:57:25;14.20;99.90
28614;DHT22;15806;53.548;9.964;2022-09-24T03:59:06;14.20;99.90
28614;DHT22;15806;53.548;9.964;2022-09-24T04:00:46;14.20;99.90
28614;DHT22;15806;53.548;9.964;2022-09-24T04:02:27;14.10;99.90
28614;DHT22;15806;53.548;9.964;2022-09-24T04:04:07;14.10;99.90
28614;DHT22;15806;53.548;9.964;2022-09-24T04:05:48;14.10;99.90
28614;DHT22;15806;53.548;9.964;2022-09-24T04:07:28;14.10;99.90
28614;DHT22;15806;53.548;9.964;2022-09-24T04:09:09;14.10;99.90
28614;DHT22;15806;53.548;9.964;2022-09-24T04:10:50;14.10;99.90
28614;DHT22;15806;53.548;9.964;2022-09-24T04:12:30;14.20;99.90
28614;DHT22;15806;53.548;9.964;2022-09-24T04:14:13;14.20;99.90
28614;DHT22;15806;53.548;9.964;2022-09-24T04:16:11;14.30;99.90
28614;DHT22;15806;53.548;9.964;2022-09-24T04:17:53;14.40;99.90
28614;DHT22;15806;53.548;9.964;2022-09-24T04:19:34;14.50;99.90
28614;DHT22;15806;53.548;9.964;2022-09-24T04:21:14;14.50;99.90
28614;DHT22;15806;53.548;9.964;2022-09-24T04:23:04;14.40;99.90
28614;DHT22;15806;53.548;9.964;2022-09-24T04:24:44;14.40;99.90
28614;DHT22;15806;53.548;9.964;2022-09-24T04:26:25;14.30;99.90
28614;DHT22;15806;53.548;9.964;2022-09-24T04:28:07;14.30;99.90
28614;DHT22;15806;53.548;9.964;2022-09-24T04:29:48;14.40;99.90
28614;DHT22;15806;53.548;9.964;2022-09-24T04:31:28;14.40;99.90
28614;DHT22;15806;53.548;9.964;2022-09-24T04:33:10;14.50;99.90
28614;DHT22;15806;53.548;9.964;2022-09-24T04:34:50;14.50;99.90
28614;DHT22;15806;53.548;9.964;2022-09-24T04:36:31;14.40;99.90
28614;DHT22;15806;53.548;9.964;2022-09-24T04:38:11;14.50;99.90
28614;DHT22;15806;53.548;9.964;2022-09-24T04:39:52;14.50;99.90
28614;DHT22;15806;53.548;9.964;2022-09-24T04:41:32;14.50;99.90
28614;DHT22;15806;53.548;9.964;2022-09-24T04:43:13;14.50;99.90
28614;DHT22;15806;53.548;9.964;2022-09-24T04:44:53;14.60;99.90
28614;DHT22;15806;53.548;9.964;2022-09-24T04:46:34;14.60;99.90
28614;DHT22;15806;53.548;9.964;2022-09-24T04:48:14;14.60;99.90
28614;DHT22;15806;53.548;9.964;2022-09-24T04:49:55;14.60;99.90
28614;DHT22;15806;53.548;9.964;2022-09-24T04:51:35;14.70;99.90
28614;DHT22;15806;53.548;9.964;2022-09-24T04:53:16;14.70;99.90
28614;DHT22;15806;53.548;9.964;2022-09-24T04:54:57;14.70;99.90
28614;DHT22;15806;53.548;9.964;2022-09-24T04:56:37;14.70;99.90
28614;DHT22;15806;53.548;9.964;2022-09-24T04:58:18;14.80;99.90
28614;DHT22;15806;53.548;9.964;2022-09-24T04:59:58;14.80;99.90
28614;DHT22;15806;53.548;9.964;2022-09-24T05:01:39;14.80;99.90
28614;DHT22;15806;53.548;9.964;2022-09-24T05:03:19;14.80;99.90
28614;DHT22;15806;53.548;9.964;2022-09-24T05:05:00;15.00;99.90
28614;DHT22;15806;53.548;9.964;2022-09-24T05:06:40;15.00;99.90
28614;DHT22;15806;53.548;9.964;2022-09-24T05:08:21;15.10;99.90
28614;DHT22;15806;53.548;9.964;2022-09-24T05:10:02;15.20;99.90
28614;DHT22;15806;53.548;9.964;2022-09-24T05:11:43;15.20;99.90
28614;DHT22;15806;53.548;9.964;2022-09-24T05:13:23;15.30;99.90
28614;DHT22;15806;53.548;9.964;2022-09-24T05:15:04;15.40;99.90
28614;DHT22;15806;53.548;9.964;2022-09-24T05:16:45;15.30;99.90
28614;DHT22;15806;53.548;9.964;2022-09-24T05:18:26;15.30;99.90
28614;DHT22;15806;53.548;9.964;2022-09-24T05:20:07;15.30;99.90
28614;DHT22;15806;53.548;9.964;2022-09-24T05:21:48;15.30;99.90
28614;DHT22;15806;53.548;9.964;2022-09-24T05:23:28;15.50;99.90
28614;DHT22;15806;53.548;9.964;2022-09-24T05:25:10;15.60;99.90
28614;DHT22;15806;53.548;9.964;2022-09-24T05:26:51;15.50;99.90
28614;DHT22;15806;53.548;9.964;2022-09-24T05:28:32;15.50;99.90
28614;DHT22;15806;53.548;9.964;2022-09-24T05:30:13;15.60;99.90
28614;DHT22;15806;53.548;9.964;2022-09-24T05:31:53;15.50;99.90
28614;DHT22;15806;53.548;9.964;2022-09-24T05:33:34;15.60;99.90
28614;DHT22;15806;53.548;9.964;2022-09-24T05:35:14;15.60;99.90
28614;DHT22;15806;53.548;9.964;2022-09-24T05:36:55;15.80;99.90
28614;DHT22;15806;53.548;9.964;2022-09-24T05:38:35;15.80;99.90
28614;DHT22;15806;53.548;9.964;2022-09-24T05:40:16;15.90;99.90
28614;DHT22;15806;53.548;9.964;2022-09-24T05:41:57;15.90;99.90
28614;DHT22;15806;53.548;9.964;2022-09-24T05:43:37;15.80;99.90
28614;DHT22;15806;53.548;9.964;2022-09-24T05:45:19;15.80;99.90
28614;DHT22;15806;53.548;9.964;2022-09-24T05:46:59;15.90;99.90
28614;DHT22;15806;53.548;9.964;2022-09-24T05:48:40;16.00;99.90
28614;DHT22;15806;53.548;9.964;2022-09-24T05:50:20;16.00;99.90
28614;DHT22;15806;53.548;9.964;2022-09-24T05:52:01;15.90;99.90
28614;DHT22;15806;53.548;9.964;2022-09-24T05:53:41;15.90;99.90
28614;DHT22;15806;53.548;9.964;2022-09-24T05:55:22;15.90;99.90
28614;DHT22;15806;53.548;9.964;2022-09-24T05:57:03;15.90;99.90
28614;DHT22;15806;53.548;9.964;2022-09-24T05:58:43;15.90;99.90
28614;DHT22;15806;53.548;9.964;2022-09-24T06:00:24;15.90;99.90
28614;DHT22;15806;53.548;9.964;2022-09-24T06:02:04;15.90;99.90
28614;DHT22;15806;53.548;9.964;2022-09-24T06:03:45;15.90;99.90
28614;DHT22;15806;53.548;9.964;2022-09-24T06:05:25;16.00;99.90
28614;DHT22;15806;53.548;9.964;2022-09-24T06:07:06;16.00;99.90
28614;DHT22;15806;53.548;9.964;2022-09-24T06:08:46;16.10;99.90
28614;DHT22;15806;53.548;9.964;2022-09-24T06:10:27;16.10;99.90
28614;DHT22;15806;53.548;9.964;2022-09-24T06:12:07;16.20;99.90
28614;DHT22;15806;53.548;9.964;2022-09-24T06:13:49;16.20;99.90
28614;DHT22;15806;53.548;9.964;2022-09-24T06:15:30;16.20;99.90
28614;DHT22;15806;53.548;9.964;2022-09-24T06:17:10;16.30;99.90
28614;DHT22;15806;53.548;9.964;2022-09-24T06:18:50;16.40;99.90
28614;DHT22;15806;53.548;9.964;2022-09-24T06:20:31;16.40;99.90
28614;DHT22;15806;53.548;9.964;2022-09-24T06:22:12;16.40;99.90
28614;DHT22;15806;53.548;9.964;2022-09-24T06:23:53;16.50;99.90
28614;DHT22;15806;53.548;9.964;2022-09-24T06:25:33;16.50;99.90
28614;DHT22;15806;53.548;9.964;2022-09-24T06:27:14;16.50;99.90
28614;DHT22;15806;53.548;9.964;2022-09-24T06:28:54;16.60;99.90
28614;DHT22;15806;53.548;9.964;2022-09-24T06:30:36;16.60;99.90
28614;DHT22;15806;53.548;9.964;2022-09-24T06:32:17;16.70;99.90
28614;DHT22;15806;53.548;9.964;2022-09-24T06:33:57;16.80;99.90
28614;DHT22;15806;53.548;9.964;2022-09-24T06:35:40;16.80;99.90
28614;DHT22;15806;53.548;9.964;2022-09-24T06:37:20;16.80;99.90
28614;DHT22;15806;53.548;9.964;2022-09-24T06:39:01;16.80;99.90
28614;DHT22;15806;53.548;9.964;2022-09-24T06:40:43;16.80;99.90
28614;DHT22;15806;53.548;9.964;2022-09-24T06:42:24;16.90;99.90
28614;DHT22;15806;53.548;9.964;2022-09-24T06:44:04;17.00;99.90
28614;DHT22;15806;53.548;9.964;2022-09-24T06:45:45;17.00;99.90
28614;DHT22;15806;53.548;9.964;2022-09-24T06:47:25;17.10;99.90
28614;DHT22;15806;53.548;9.964;2022-09-24T06:49:06;17.20;99.90
28614;DHT22;15806;53.548;9.964;2022-09-24T06:50:46;17.20;99.90
28614;DHT22;15806;53.548;9.964;2022-09-24T06:52:28;17.20;99.90
28614;DHT22;15806;53.548;9.964;2022-09-24T06:54:09;17.20;99.90
28614;DHT22;15806;53.548;9.964;2022-09-24T06:55:50;17.20;99.90
28614;DHT22;15806;53.548;9.964;2022-09-24T06:57:30;17.30;99.90
28614;DHT22;15806;53.548;9.964;2022-09-24T06:59:11;17.30;99.90
28614;DHT22;15806;53.548;9.964;2022-09-24T07:00:53;17.30;99.90
28614;DHT22;15806;53.548;9.964;2022-09-24T07:02:34;17.30;99.90
28614;DHT22;15806;53.548;9.964;2022-09-24T07:04:14;17.30;99.90
28614;DHT22;15806;53.548;9.964;2022-09-24T07:05:58;17.50;99.90
28614;DHT22;15806;53.548;9.964;2022-09-24T07:07:39;17.50;99.90
28614;DHT22;15806;53.548;9.964;2022-09-24T07:09:20;17.60;99.90
28614;DHT22;15806;53.548;9.964;2022-09-24T07:11:01;17.60;99.90
28614;DHT22;15806;53.548;9.964;2022-09-24T07:12:42;17.60;99.90
28614;DHT22;15806;53.548;9.964;2022-09-24T07:14:22;17.60;99.90
28614;DHT22;15806;53.548;9.964;2022-09-24T07:16:03;17.60;99.90
28614;DHT22;15806;53.548;9.964;2022-09-24T07:17:43;17.70;99.90
28614;DHT22;15806;53.548;9.964;2022-09-24T07:19:24;17.80;99.90
28614;DHT22;15806;53.548;9.964;2022-09-24T07:21:05;17.80;99.90
28614;DHT22;15806;53.548;9.964;2022-09-24T07:22:45;17.80;99.90
28614;DHT22;15806;53.548;9.964;2022-09-24T07:24:26;17.80;99.90
28614;DHT22;15806;53.548;9.964;2022-09-24T07:26:06;17.90;99.90
28614;DHT22;15806;53.548;9.964;2022-09-24T07:27:47;18.00;99.90
28614;DHT22;15806;53.548;9.964;2022-09-24T07:29:27;17.90;99.90
28614;DHT22;15806;53.548;9.964;2022-09-24T07:31:09;18.00;99.90
28614;DHT22;15806;53.548;9.964;2022-09-24T07:32:54;18.10;99.90
28614;DHT22;15806;53.548;9.964;2022-09-24T07:34:34;18.20;99.90
28614;DHT22;15806;53.548;9.964;2022-09-24T07:36:17;18.30;99.90
28614;DHT22;15806;53.548;9.964;2022-09-24T07:37:59;18.30;99.90
28614;DHT22;15806;53.548;9.964;2022-09-24T07:39:40;18.40;99.90
28614;DHT22;15806;53.548;9.964;2022-09-24T07:41:21;18.40;99.90
28614;DHT22;15806;53.548;9.964;2022-09-24T07:43:01;18.40;99.90
28614;DHT22;15806;53.548;9.964;2022-09-24T07:44:42;18.40;99.90
28614;DHT22;15806;53.548;9.964;2022-09-24T07:46:23;18.50;99.90
28614;DHT22;15806;53.548;9.964;2022-09-24T07:48:04;18.60;99.90
28614;DHT22;15806;53.548;9.964;2022-09-24T07:49:44;18.70;99.90
28614;DHT22;15806;53.548;9.964;2022-09-24T07:51:26;18.60;99.90
28614;DHT22;15806;53.548;9.964;2022-09-24T07:53:11;18.60;99.90
28614;DHT22;15806;53.548;9.964;2022-09-24T07:54:52;18.60;99.90
28614;DHT22;15806;53.548;9.964;2022-09-24T07:56:33;18.70;99.90
28614;DHT22;15806;53.548;9.964;2022-09-24T07:58:14;18.70;99.90
28614;DHT22;15806;53.548;9.964;2022-09-24T07:59:55;18.80;99.90
28614;DHT22;15806;53.548;9.964;2022-09-24T08:01:36;18.90;99.90
28614;DHT22;15806;53.548;9.964;2022-09-24T08:03:16;19.00;99.90
28614;DHT22;15806;53.548;9.964;2022-09-24T08:04:57;18.90;99.90
28614;DHT22;15806;53.548;9.964;2022-09-24T08:06:37;18.80;99.90
28614;DHT22;15806;53.548;9.964;2022-09-24T08:08:19;18.80;99.90
28614;DHT22;15806;53.548;9.964;2022-09-24T08:09:59;18.80;99.90
28614;DHT22;15806;53.548;9.964;2022-09-24T08:11:41;18.80;99.90
28614;DHT22;15806;53.548;9.964;2022-09-24T08:13:23;18.90;99.90
28614;DHT22;15806;53.548;9.964;2022-09-24T08:15:04;18.90;99.90
28614;DHT22;15806;53.548;9.964;2022-09-24T08:16:44;18.90;99.90
28614;DHT22;15806;53.548;9.964;2022-09-24T08:18:25;19.00;99.90
28614;DHT22;15806;53.548;9.964;2022-09-24T08:20:08;19.00;99.90
28614;DHT22;15806;53.548;9.964;2022-09-24T08:21:49;19.00;99.90
28614;DHT22;15806;53.548;9.964;2022-09-24T08:23:31;19.10;99.90
28614;DHT22;15806;53.548;9.964;2022-09-24T08:25:14;19.20;99.90
28614;DHT22;15806;53.548;9.964;2022-09-24T08:26:55;19.20;99.90
28614;DHT22;15806;53.548;9.964;2022-09-24T08:28:36;19.20;99.90
28614;DHT22;15806;53.548;9.964;2022-09-24T08:30:16;19.20;99.90
28614;DHT22;15806;53.548;9.964;2022-09-24T08:31:57;19.30;99.90
28614;DHT22;15806;53.548;9.964;2022-09-24T08:33:38;19.40;99.90
28614;DHT22;15806;53.548;9.964;2022-09-24T08:35:19;19.40;99.90
28614;DHT22;15806;53.548;9.964;2022-09-24T08:36:59;19.40;99.90
28614;DHT22;15806;53.548;9.964;2022-09-24T08:38:40;19.40;99.90
28614;DHT22;15806;53.548;9.964;2022-09-24T08:40:22;19.40;99.90
28614;DHT22;15806;53.548;9.964;2022-09-24T08:42:24;19.50;99.90
28614;DHT22;15806;53.548;9.964;2022-09-24T08:44:13;19.50;99.90
28614;DHT22;15806;53.548;9.964;2022-09-24T08:45:58;19.50;99.90
28614;DHT22;15806;53.548;9.964;2022-09-24T08:47:53;19.50;99.90
28614;DHT22;15806;53.548;9.964;2022-09-24T08:49:39;19.60;99.90
28614;DHT22;15806;53.548;9.964;2022-09-24T08:51:23;19.50;99.90
28614;DHT22;15806;53.548;9.964;2022-09-24T08:53:27;19.40;99.90
28614;DHT22;15806;53.548;9.964;2022-09-24T08:55:14;19.50;99.90
28614;DHT22;15806;53.548;9.964;2022-09-24T08:56:57;19.60;99.90
28614;DHT22;15806;53.548;9.964;2022-09-24T08:58:52;19.60;99.90
28614;DHT22;15806;53.548;9.964;2022-09-24T09:00:40;19.50;99.90
28614;DHT22;15806;53.548;9.964;2022-09-24T09:02:36;19.70;99.90
28614;DHT22;15806;53.548;9.964;2022-09-24T09:08:17;19.70;99.90
28614;DHT22;15806;53.548;9.964;2022-09-24T09:10:13;19.80;99.90
28614;DHT22;15806;53.548;9.964;2022-09-24T09:11:59;19.80;99.90
28614;DHT22;15806;53.548;9.964;2022-09-24T09:13:48;19.90;99.90
28614;DHT22;15806;53.548;9.964;2022-09-24T09:15:37;19.80;99.90
28614;DHT22;15806;53.548;9.964;2022-09-24T09:19:22;19.90;99.90
28614;DHT22;15806;53.548;9.964;2022-09-24T09:21:21;19.90;99.90
28614;DHT22;15806;53.548;9.964;2022-09-24T09:23:46;19.90;99.90
28614;DHT22;15806;53.548;9.964;2022-09-24T09:25:29;20.00;99.90
28614;DHT22;15806;53.548;9.964;2022-09-24T09:27:14;20.10;99.90
28614;DHT22;15806;53.548;9.964;2022-09-24T09:28:57;20.10;99.90
28614;DHT22;15806;53.548;9.964;2022-09-24T09:38:48;20.20;99.90
28614;DHT22;15806;53.548;9.964;2022-09-24T09:41:02;20.20;99.90
28614;DHT22;15806;53.548;9.964;2022-09-24T09:42:44;20.30;99.90
28614;DHT22;15806;53.548;9.964;2022-09-24T09:44:29;20.30;99.90
28614;DHT22;15806;53.548;9.964;2022-09-24T09:46:22;20.30;99.90
28614;DHT22;15806;53.548;9.964;2022-09-24T09:48:07;20.30;99.90
28614;DHT22;15806;53.548;9.964;2022-09-24T09:49:51;20.30;99.90
28614;DHT22;15806;53.548;9.964;2022-09-24T09:51:39;20.30;99.90
28614;DHT22;15806;53.548;9.964;2022-09-24T09:53:26;20.40;99.90
28614;DHT22;15806;53.548;9.964;2022-09-24T09:55:07;20.40;99.90
28614;DHT22;15806;53.548;9.964;2022-09-24T09:56:48;20.40;99.90
28614;DHT22;15806;53.548;9.964;2022-09-24T09:58:33;20.40;99.90
28614;DHT22;15806;53.548;9.964;2022-09-24T10:00:27;20.40;99.90
28614;DHT22;15806;53.548;9.964;2022-09-24T10:02:24;20.50;99.90
28614;DHT22;15806;53.548;9.964;2022-09-24T10:04:27;20.50;99.90
28614;DHT22;15806;53.548;9.964;2022-09-24T10:06:13;20.60;99.90
28614;DHT22;15806;53.548;9.964;2022-09-24T10:07:55;20.60;99.90
28614;DHT22;15806;53.548;9.964;2022-09-24T10:09:37;20.60;99.90
28614;DHT22;15806;53.548;9.964;2022-09-24T10:11:21;20.70;99.90
28614;DHT22;15806;53.548;9.964;2022-09-24T10:13:07;20.70;99.90
28614;DHT22;15806;53.548;9.964;2022-09-24T10:15:03;20.80;99.90
28614;DHT22;15806;53.548;9.964;2022-09-24T10:16:53;20.80;99.90
28614;DHT22;15806;53.548;9.964;2022-09-24T10:18:37;20.80;99.90
28614;DHT22;15806;53.548;9.964;2022-09-24T10:20:23;20.80;99.90
28614;DHT22;15806;53.548;9.964;2022-09-24T10:22:14;20.80;99.90
28614;DHT22;15806;53.548;9.964;2022-09-24T10:23:59;20.70;99.90
28614;DHT22;15806;53.548;9.964;2022-09-24T10:25:49;20.70;99.90
28614;DHT22;15806;53.548;9.964;2022-09-24T10:27:34;20.60;99.90
28614;DHT22;15806;53.548;9.964;2022-09-24T10:29:18;20.50;99.90
28614;DHT22;15806;53.548;9.964;2022-09-24T10:31:02;20.60;99.90
28614;DHT22;15806;53.548;9.964;2022-09-24T10:32:44;20.60;99.90
28614;DHT22;15806;53.548;9.964;2022-09-24T10:34:26;20.60;99.90
28614;DHT22;15806;53.548;9.964;2022-09-24T10:36:28;20.70;99.90
28614;DHT22;15806;53.548;9.964;2022-09-24T10:38:19;20.80;99.90
28614;DHT22;15806;53.548;9.964;2022-09-24T10:40:12;20.80;99.90
28614;DHT22;15806;53.548;9.964;2022-09-24T10:41:55;20.70;99.90
28614;DHT22;15806;53.548;9.964;2022-09-24T10:43:37;20.80;99.90
28614;DHT22;15806;53.548;9.964;2022-09-24T10:45:17;20.70;99.90
28614;DHT22;15806;53.548;9.964;2022-09-24T10:47:26;20.80;99.90
28614;DHT22;15806;53.548;9.964;2022-09-24T10:53:07;20.80;99.90
28614;DHT22;15806;53.548;9.964;2022-09-24T10:54:57;20.70;99.90
28614;DHT22;15806;53.548;9.964;2022-09-24T10:56:47;20.70;99.90
28614;DHT22;15806;53.548;9.964;2022-09-24T11:04:58;20.80;99.90
28614;DHT22;15806;53.548;9.964;2022-09-24T11:09:00;20.90;99.90
28614;DHT22;15806;53.548;9.964;2022-09-24T11:11:08;21.00;99.90
28614;DHT22;15806;53.548;9.964;2022-09-24T11:21:54;20.90;99.90
28614;DHT22;15806;53.548;9.964;2022-09-24T11:31:39;20.80;99.90
28614;DHT22;15806;53.548;9.964;2022-09-24T11:40:02;21.00;99.90
28614;DHT22;15806;53.548;9.964;2022-09-24T11:56:09;20.80;99.90
28614;DHT22;15806;53.548;9.964;2022-09-24T12:00:06;20.70;99.90
28614;DHT22;15806;53.548;9.964;2022-09-24T12:01:55;20.60;99.90
28614;DHT22;15806;53.548;9.964;2022-09-24T12:04:10;20.60;99.90
28614;DHT22;15806;53.548;9.964;2022-09-24T12:06:40;20.70;99.90
28614;DHT22;15806;53.548;9.964;2022-09-24T12:08:40;20.70;99.90
28614;DHT22;15806;53.548;9.964;2022-09-24T12:13:54;20.70;99.90
28614;DHT22;15806;53.548;9.964;2022-09-24T12:15:51;20.60;99.90
28614;DHT22;15806;53.548;9.964;2022-09-24T12:17:57;20.50;99.90
28614;DHT22;15806;53.548;9.964;2022-09-24T12:20:01;20.50;99.90
28614;DHT22;15806;53.548;9.964;2022-09-24T12:21:42;20.50;99.90